Time;durP1;ratioP1;P1;durP2;ratioP2;P2;SDS_P1;SDS_P2;PMS_P1;PMS_P2;Temp;Humidity;BMP_temperature;BMP_pressure;BME280_temperature;BME280_humidity;BME280_pressure;Samples;Min_cycle;Max_cycle;Signal;HPM_P1;HPM_P2
2022/11/27 00:01:44;;;;;;;6.97;2.63;;;7.90;99.90;;;;;;5009962;28;20038;-77
2022/11/27 00:04:49;;;;;;;8.75;3.20;;;7.90;99.90;;;;;;5011027;28;20042;-77
2022/11/27 00:07:53;;;;;;;7.65;5.25;;;7.80;99.90;;;;;;5011037;28;20033;-77
2022/11/27 00:11:02;;;;;;;6.60;2.70;;;7.70;99.90;;;;;;5011066;28;20046;-78
2022/11/27 00:14:10;;;;;;;5.78;2.60;;;7.60;99.90;;;;;;5010566;28;20042;-78
2022/11/27 00:17:15;;;;;;;9.35;3.70;;;7.50;99.90;;;;;;5011059;28;20042;-75
2022/11/27 00:20:19;;;;;;;6.20;2.83;;;7.40;99.90;;;;;;5010630;28;20038;-77
2022/11/27 00:23:23;;;;;;;5.28;2.60;;;7.40;99.90;;;;;;5010368;28;20045;-76
2022/11/27 00:26:48;;;;;;;9.68;3.67;;;7.40;99.90;;;;;;5010136;28;20038;-78
2022/11/27 00:30:11;;;;;;;8.68;3.60;;;7.40;99.90;;;;;;5010921;28;20042;-78
2022/11/27 00:33:15;;;;;;;;;;;7.30;99.90;;;;;;5010874;28;20042;-77
2022/11/27 00:36:20;;;;;;;7.50;3.03;;;7.20;99.90;;;;;;5010552;28;19917;-78
2022/11/27 00:39:24;;;;;;;12.57;3.60;;;7.10;99.90;;;;;;5010134;28;20042;-77
2022/11/27 00:42:28;;;;;;;7.70;3.55;;;7.00;99.90;;;;;;5010372;28;20045;-77
2022/11/27 00:45:52;;;;;;;8.60;3.10;;;6.90;99.90;;;;;;5010501;28;20042;-77
2022/11/27 00:48:58;;;;;;;8.23;3.42;;;6.80;99.90;;;;;;5010589;28;20041;-78
2022/11/27 00:52:02;;;;;;;10.48;2.90;;;6.80;99.90;;;;;;5009960;28;20476;-77
2022/11/27 00:55:07;;;;;;;5.88;2.83;;;6.90;99.90;;;;;;5009186;28;20049;-78
2022/11/27 01:01:52;;;;;;;7.95;3.42;;;7.30;99.90;;;;;;5009976;28;20222;-76
2022/11/27 01:04:56;;;;;;;7.43;3.35;;;7.20;99.90;;;;;;5010047;28;20370;-76
2022/11/27 01:08:21;;;;;;;9.45;4.35;;;7.20;99.90;;;;;;5009505;28;20038;-77
2022/11/27 01:11:28;;;;;;;5.25;3.00;;;7.30;99.90;;;;;;5010445;28;20052;-78
2022/11/27 01:14:34;;;;;;;7.22;3.45;;;7.20;99.90;;;;;;5009886;28;20045;-77
2022/11/27 01:17:38;;;;;;;7.15;3.25;;;7.20;99.90;;;;;;5010720;28;20053;-79
2022/11/27 01:20:43;;;;;;;7.13;2.85;;;7.00;99.90;;;;;;5008346;28;20046;-77
2022/11/27 01:23:48;;;;;;;8.30;3.13;;;6.90;99.90;;;;;;5009965;28;20038;-77
2022/11/27 01:26:52;;;;;;;7.32;3.25;;;6.80;99.90;;;;;;5009513;28;20050;-79
2022/11/27 01:29:56;;;;;;;8.82;3.30;;;6.70;99.90;;;;;;5010654;28;20034;-78
2022/11/27 01:33:00;;;;;;;7.25;3.30;;;6.70;99.90;;;;;;5009381;28;20045;-77
2022/11/27 01:36:42;;;;;;;7.78;3.67;;;6.60;99.90;;;;;;5009857;28;20042;-77
2022/11/27 01:40:06;;;;;;;10.32;4.28;;;6.60;99.90;;;;;;5013782;28;20037;-78
2022/11/27 01:43:15;;;;;;;10.88;3.38;;;6.80;99.90;;;;;;5013176;28;20045;-78
2022/11/27 01:46:33;;;;;;;9.63;3.95;;;6.90;99.90;;;;;;5013637;28;20057;-77
2022/11/27 01:49:46;;;;;;;13.10;4.10;;;6.90;99.90;;;;;;5025517;28;20216;-78
2022/11/27 01:53:14;;;;;;;8.68;4.07;;;6.80;99.90;;;;;;5044830;28;20410;-77
2022/11/27 01:56:37;;;;;;;8.63;3.90;;;6.70;99.90;;;;;;5053192;28;20376;-77
2022/11/27 01:59:44;;;;;;;8.30;3.85;;;6.70;99.90;;;;;;5053030;28;20029;-76
2022/11/27 02:03:07;;;;;;;12.02;3.70;;;6.60;99.90;;;;;;5052741;28;20037;-78
2022/11/27 02:06:12;;;;;;;10.18;3.42;;;6.60;99.90;;;;;;5052319;28;20055;-77
2022/11/27 02:09:17;;;;;;;10.75;4.30;;;6.60;99.90;;;;;;5063590;28;20047;-77
2022/11/27 02:12:51;;;;;;;9.70;3.97;;;6.60;99.90;;;;;;5052730;28;20391;-77
2022/11/27 02:16:19;;;;;;;11.63;3.95;;;6.50;99.90;;;;;;5053103;28;20041;-77
2022/11/27 02:19:52;;;;;;;8.07;4.10;;;6.50;99.90;;;;;;5051814;28;20048;-77
2022/11/27 02:23:51;;;;;;;6.20;3.85;;;6.50;99.90;;;;;;5052060;28;20049;-77
2022/11/27 02:27:16;;;;;;;9.88;3.78;;;6.50;99.90;;;;;;5051853;28;20041;-77
2022/11/27 02:30:42;;;;;;;12.13;4.00;;;6.40;99.90;;;;;;5052561;28;20041;-78
2022/11/27 02:33:52;;;;;;;11.07;4.50;;;6.40;99.90;;;;;;5051128;28;20044;-77
2022/11/27 02:37:21;;;;;;;7.50;3.90;;;6.30;99.90;;;;;;5052770;28;20483;-78
2022/11/27 02:40:40;;;;;;;7.47;3.72;;;6.30;99.90;;;;;;5052215;28;20041;-78
2022/11/27 02:43:49;;;;;;;12.25;4.20;;;6.20;99.90;;;;;;5051732;28;20179;-78
2022/11/27 02:46:53;;;;;;;9.43;4.05;;;6.20;99.90;;;;;;5052149;28;20047;-78
2022/11/27 02:49:58;;;;;;;10.57;3.60;;;6.10;99.90;;;;;;5052138;28;20021;-77
2022/11/27 02:53:09;;;;;;;7.45;3.30;;;6.10;99.90;;;;;;5051814;28;20052;-79
2022/11/27 02:56:18;;;;;;;8.43;3.05;;;6.20;99.90;;;;;;5052122;28;20037;-77
2022/11/27 02:59:24;;;;;;;9.88;4.50;;;6.30;99.90;;;;;;5051712;28;20623;-77
2022/11/27 03:02:35;;;;;;;10.68;3.90;;;6.40;99.90;;;;;;5050749;28;20488;-78
2022/11/27 03:05:42;;;;;;;11.40;3.92;;;6.50;99.90;;;;;;5051841;28;20455;-78
2022/11/27 03:08:53;;;;;;;6.90;4.07;;;6.40;99.90;;;;;;5051602;28;20391;-76
2022/11/27 03:12:17;;;;;;;7.63;4.10;;;6.40;99.90;;;;;;5051662;28;20044;-78
2022/11/27 03:15:46;;;;;;;11.55;4.22;;;6.40;99.90;;;;;;5050928;28;20045;-77
2022/11/27 03:19:15;;;;;;;10.15;4.40;;;6.30;99.90;;;;;;5051726;28;20047;-78
2022/11/27 03:22:19;;;;;;;10.48;4.40;;;6.40;99.90;;;;;;5050708;28;20048;-77
2022/11/27 03:25:44;;;;;;;8.90;4.20;;;6.30;99.90;;;;;;5050972;28;20043;-77
2022/11/27 03:28:50;;;;;;;10.52;4.07;;;6.30;99.90;;;;;;5051736;28;20381;-77
2022/11/27 03:31:55;;;;;;;7.28;4.30;;;6.30;99.90;;;;;;5050753;28;20059;-78
2022/11/27 03:35:00;;;;;;;10.63;4.10;;;6.20;99.90;;;;;;5050804;28;20045;-77
2022/11/27 03:38:04;;;;;;;7.93;4.25;;;6.10;99.90;;;;;;5051370;28;20052;-79
2022/11/27 03:41:08;;;;;;;6.95;3.25;;;6.10;99.90;;;;;;5051320;28;20053;-78
2022/11/27 03:44:38;;;;;;;8.52;3.80;;;6.10;99.90;;;;;;5050784;28;20037;-77
2022/11/27 03:47:46;;;;;;;9.13;4.38;;;6.00;99.90;;;;;;5050993;28;20037;-78
2022/11/27 03:51:03;;;;;;;7.25;3.70;;;5.90;99.90;;;;;;5051148;28;20045;-77
2022/11/27 03:54:17;;;;;;;6.15;3.40;;;5.80;99.90;;;;;;5050448;28;20049;-78
2022/11/27 03:57:34;;;;;;;6.18;3.17;;;5.80;99.90;;;;;;5050937;28;20045;-78
2022/11/27 04:00:42;;;;;;;6.95;3.42;;;5.80;99.90;;;;;;5049821;28;20060;-78
2022/11/27 04:04:06;;;;;;;7.22;3.00;;;5.80;99.90;;;;;;5049564;28;20108;-78
2022/11/27 04:07:16;;;;;;;4.88;2.78;;;5.80;99.90;;;;;;5049242;28;20033;-77
2022/11/27 04:10:20;;;;;;;5.20;3.05;;;5.80;99.90;;;;;;5050435;28;20476;-77
2022/11/27 04:13:24;;;;;;;12.85;3.90;;;5.90;99.90;;;;;;5049966;28;20033;-78
2022/11/27 04:16:28;;;;;;;7.90;3.42;;;6.10;99.90;;;;;;5050493;28;20040;-78
2022/11/27 04:19:32;;;;;;;5.60;2.70;;;6.20;99.90;;;;;;5051213;28;20037;-77
2022/11/27 04:22:36;;;;;;;11.18;4.35;;;6.10;99.90;;;;;;5050132;28;20037;-77
2022/11/27 04:25:40;;;;;;;7.82;3.70;;;5.90;99.90;;;;;;5050537;28;20048;-78
2022/11/27 04:28:45;;;;;;;5.97;3.05;;;5.80;99.90;;;;;;5050435;28;20037;-77
2022/11/27 04:31:49;;;;;;;5.97;2.90;;;5.80;99.90;;;;;;5061463;28;20044;-77
2022/11/27 04:34:54;;;;;;;7.18;3.50;;;5.90;99.90;;;;;;5049881;28;20037;-77
2022/11/27 04:38:18;;;;;;;4.47;2.92;;;5.70;99.90;;;;;;5049401;28;20503;-78
2022/11/27 04:41:42;;;;;;;6.47;3.30;;;5.60;99.90;;;;;;5050018;28;20396;-77
2022/11/27 04:45:06;;;;;;;12.15;3.60;;;5.50;99.90;;;;;;5049433;28;20025;-77
2022/11/27 04:48:09;;;;;;;;;;;5.40;99.90;;;;;;5050047;28;20043;-78
2022/11/27 04:51:14;;;;;;;7.45;4.03;;;5.30;99.90;;;;;;5072132;28;19916;-77
2022/11/27 04:54:36;;;;;;;10.75;4.65;;;5.10;99.90;;;;;;5049400;28;20372;-77
2022/11/27 04:57:40;;;;;;;8.95;3.83;;;5.10;99.90;;;;;;5050129;28;20052;-77
2022/11/27 05:00:44;;;;;;;12.48;4.15;;;5.10;99.90;;;;;;5049893;28;20472;-78
2022/11/27 05:03:48;;;;;;;15.27;5.25;;;5.20;99.90;;;;;;5049352;28;20044;-77
2022/11/27 05:06:52;;;;;;;24.25;5.63;;;5.30;99.90;;;;;;5049911;28;20048;-76
2022/11/27 05:10:15;;;;;;;16.90;6.63;;;5.30;99.90;;;;;;5060714;28;20060;-76
2022/11/27 05:13:19;;;;;;;11.70;4.95;;;5.20;99.90;;;;;;5053226;28;20040;-78
2022/11/27 05:17:08;;;;;;;11.10;4.75;;;5.20;99.90;;;;;;5053087;28;20044;-77
2022/11/27 05:20:12;;;;;;;10.82;4.82;;;5.40;99.90;;;;;;5053882;28;20384;-77
2022/11/27 05:23:16;;;;;;;7.82;4.03;;;5.40;99.90;;;;;;5053539;28;20051;-76
2022/11/27 05:26:57;;;;;;;6.72;4.07;;;5.40;99.90;;;;;;5054085;28;20032;-77
2022/11/27 05:30:02;;;;;;;8.93;4.32;;;5.20;99.90;;;;;;5054210;28;20045;-78
2022/11/27 05:36:29;;;;;;;8.77;4.78;;;5.00;99.90;;;;;;5053640;28;20036;-77
2022/11/27 05:39:33;;;;;;;13.38;5.55;;;5.10;99.90;;;;;;5052788;28;20037;-77
2022/11/27 05:46:06;;;;;;;8.95;4.57;;;5.20;99.90;;;;;;5053038;28;20059;-77
2022/11/27 05:49:32;;;;;;;9.70;5.05;;;5.30;99.90;;;;;;5053282;28;20376;-77
2022/11/27 05:56:15;;;;;;;8.07;4.05;;;5.30;99.90;;;;;;5053071;28;20041;-77
2022/11/27 06:03:00;;;;;;;10.25;3.95;;;5.30;99.90;;;;;;5052799;28;20047;-76
2022/11/27 06:09:31;;;;;;;10.60;4.28;;;5.00;99.90;;;;;;5053202;28;20574;-78
2022/11/27 06:12:35;;;;;;;6.00;3.92;;;5.40;99.90;;;;;;5053064;28;20060;-77
2022/11/27 06:15:57;;;;;;;8.02;4.35;;;5.50;99.90;;;;;;5052742;28;20422;-76
2022/11/27 06:19:20;;;;;;;8.30;3.90;;;5.30;99.90;;;;;;5052725;28;20040;-77
2022/11/27 06:22:24;;;;;;;8.25;3.80;;;5.10;99.90;;;;;;5051508;28;20029;-77
2022/11/27 06:29:12;;;;;;;9.90;4.03;;;4.90;99.90;;;;;;5052421;28;20408;-77
2022/11/27 06:32:17;;;;;;;7.30;3.85;;;4.80;99.90;;;;;;5052723;28;20041;-77
2022/11/27 06:35:21;;;;;;;6.97;3.80;;;4.80;99.90;;;;;;5051628;28;20241;-78
2022/11/27 06:38:25;;;;;;;12.18;4.30;;;4.80;99.90;;;;;;5052600;28;20052;-77
2022/11/27 06:41:30;;;;;;;9.93;5.45;;;5.00;99.90;;;;;;5052207;28;20051;-78
2022/11/27 06:44:52;;;;;;;10.23;4.78;;;5.20;99.90;;;;;;5051635;28;20037;-77
2022/11/27 06:47:57;;;;;;;10.40;3.88;;;5.10;99.90;;;;;;5051576;28;20048;-77
2022/11/27 06:51:03;;;;;;;28.92;14.07;;;5.10;99.90;;;;;;5063001;28;20043;-77
2022/11/27 06:54:08;;;;;;;10.73;4.57;;;5.00;99.90;;;;;;5051730;28;20048;-76
2022/11/27 06:57:13;;;;;;;12.85;4.15;;;6.10;99.90;;;;;;5051856;28;20052;-78
2022/11/27 07:00:18;;;;;;;6.63;2.80;;;8.80;99.90;;;;;;5051964;28;20055;-78
2022/11/27 07:03:22;;;;;;;6.10;3.03;;;10.80;99.90;;;;;;5062090;28;20045;-78
2022/11/27 07:06:26;;;;;;;6.60;2.70;;;12.30;99.90;;;;;;5051691;28;20095;-78
2022/11/27 07:09:49;;;;;;;5.35;2.60;;;13.50;99.90;;;;;;5051704;28;20051;-77
2022/11/27 07:12:53;;;;;;;6.28;2.90;;;14.80;99.90;;;;;;5051627;28;20048;-79
2022/11/27 07:16:18;;;;;;;6.05;2.70;;;16.10;99.90;;;;;;5051477;28;20498;-75
2022/11/27 07:19:22;;;;;;;4.97;2.60;;;17.30;99.90;;;;;;5051081;28;20056;-79
2022/11/27 07:22:27;;;;;;;7.75;2.63;;;17.70;99.90;;;;;;5052422;28;20048;-75
2022/11/27 07:25:30;;;;;;;7.38;3.47;;;17.80;99.50;;;;;;5051038;28;20052;-75
2022/11/27 07:28:35;;;;;;;8.07;2.80;;;17.50;99.50;;;;;;5051458;28;20052;-77
2022/11/27 07:31:39;;;;;;;5.68;2.72;;;19.00;99.20;;;;;;5051450;28;20498;-78
2022/11/27 07:34:45;;;;;;;7.82;3.58;;;21.00;97.80;;;;;;5050936;28;20094;-78
2022/11/27 07:37:49;;;;;;;5.25;2.70;;;21.10;93.50;;;;;;5051198;28;20047;-77
2022/11/27 07:41:10;;;;;;;8.30;4.78;;;19.30;96.20;;;;;;5051168;28;20049;-78
2022/11/27 07:44:33;;;;;;;6.32;2.50;;;18.20;95.40;;;;;;5050957;28;20052;-78
2022/11/27 07:47:37;;;;;;;6.90;2.85;;;18.90;96.60;;;;;;5051257;28;20051;-78
2022/11/27 07:50:42;;;;;;;6.95;2.67;;;20.70;94.80;;;;;;5051327;28;20052;-76
2022/11/27 07:54:06;;;;;;;7.28;3.00;;;19.80;94.80;;;;;;5050833;28;20044;-78
2022/11/27 07:57:12;;;;;;;4.82;2.40;;;21.70;94.20;;;;;;5051323;28;20055;-77
2022/11/27 08:00:16;;;;;;;5.10;2.70;;;24.50;93.40;;;;;;5051123;28;20051;-75
2022/11/27 08:03:21;;;;;;;5.13;2.78;;;26.10;89.30;;;;;;5050340;28;20506;-78
2022/11/27 08:06:26;;;;;;;7.13;2.55;;;26.10;88.30;;;;;;5050969;28;20048;-78
2022/11/27 08:12:54;;;;;;;4.43;2.60;;;23.50;89.30;;;;;;5050759;28;20044;-77
2022/11/27 08:15:58;;;;;;;4.25;2.53;;;25.90;88.80;;;;;;5050781;28;20044;-78
2022/11/27 08:19:04;;;;;;;4.20;2.35;;;28.00;85.30;;;;;;5060994;28;20502;-78
2022/11/27 08:22:15;;;;;;;6.05;4.10;;;29.50;81.60;;;;;;5050377;28;20052;-77
2022/11/27 08:25:20;;;;;;;6.43;3.03;;;29.80;79.50;;;;;;5050150;28;20040;-76
2022/11/27 08:28:24;;;;;;;4.13;2.17;;;27.80;77.60;;;;;;5050481;28;20040;-74
2022/11/27 08:31:29;;;;;;;5.57;2.25;;;28.90;78.10;;;;;;5050660;28;20040;-79
2022/11/27 08:34:33;;;;;;;10.25;2.25;;;26.10;78.40;;;;;;5049829;28;20052;-74
2022/11/27 08:37:38;;;;;;;6.18;2.05;;;26.20;78.20;;;;;;5050115;28;20044;-77
2022/11/27 08:40:42;;;;;;;3.25;1.77;;;26.80;79.00;;;;;;5050206;28;20506;-77
2022/11/27 08:43:46;;;;;;;2.58;1.40;;;29.30;75.50;;;;;;5049696;28;20064;-77
2022/11/27 08:46:50;;;;;;;5.85;1.42;;;30.40;75.30;;;;;;5048315;28;20043;-78
2022/11/27 08:49:54;;;;;;;1.90;1.30;;;27.60;73.20;;;;;;5050308;28;20044;-79
2022/11/27 08:56:24;;;;;;;4.00;2.28;;;30.80;73.30;;;;;;5050252;28;20048;-79
2022/11/27 08:59:29;;;;;;;3.85;1.33;;;31.80;70.10;;;;;;5050097;28;20056;-78
2022/11/27 09:02:52;;;;;;;1.70;1.25;;;31.60;68.70;;;;;;5050149;28;20069;-76
2022/11/27 09:05:56;;;;;;;6.18;1.80;;;31.50;66.10;;;;;;5050151;28;20052;-75
2022/11/27 09:09:18;;;;;;;4.32;1.40;;;27.10;66.70;;;;;;5050263;28;20048;-77
2022/11/27 09:12:22;;;;;;;5.93;1.40;;;27.00;71.30;;;;;;5050442;28;20522;-76
2022/11/27 09:15:27;;;;;;;2.58;1.30;;;29.10;70.50;;;;;;5049832;28;20048;-78
2022/11/27 09:18:30;;;;;;;2.60;1.23;;;31.50;69.80;;;;;;5050511;28;20047;-77
2022/11/27 09:21:34;;;;;;;5.22;1.80;;;32.90;68.30;;;;;;5049925;28;20052;-77
2022/11/27 09:24:39;;;;;;;4.78;1.63;;;33.00;67.60;;;;;;5049465;28;20395;-76
2022/11/27 09:27:43;;;;;;;2.58;1.23;;;34.00;67.00;;;;;;5049310;28;20040;-78
2022/11/27 09:30:47;;;;;;;3.15;1.20;;;34.30;65.40;;;;;;5049973;28;20055;-75
2022/11/27 09:33:52;;;;;;;2.22;1.40;;;34.70;63.50;;;;;;5049813;28;20052;-78
2022/11/27 09:37:14;;;;;;;3.20;1.40;;;34.40;64.60;;;;;;5049662;28;20052;-78
2022/11/27 09:40:42;;;;;;;2.22;0.98;;;34.60;63.40;;;;;;5049036;28;20048;-77
2022/11/27 09:44:25;;;;;;;5.40;1.45;;;34.00;59.80;;;;;;5039976;28;20052;-77
2022/11/27 09:47:58;;;;;;;2.50;1.50;;;33.90;62.50;;;;;;5049462;28;20083;-75
2022/11/27 09:51:10;;;;;;;3.40;1.23;;;33.70;60.10;;;;;;5049329;28;20036;-76
2022/11/27 09:58:14;;;;;;;3.88;1.17;;;34.20;60.60;;;;;;5051455;28;20399;-76
2022/11/27 10:01:25;;;;;;;2.25;1.20;;;33.80;60.00;;;;;;5053387;28;20491;-77
2022/11/27 10:04:29;;;;;;;3.10;1.40;;;34.10;61.20;;;;;;5053325;28;20048;-77
2022/11/27 10:07:47;;;;;;;2.60;1.23;;;35.60;59.80;;;;;;5063854;28;20044;-78
2022/11/27 10:14:58;;;;;;;1.88;1.13;;;36.70;59.20;;;;;;5052730;28;20055;-78
2022/11/27 10:18:29;;;;;;;6.47;4.95;;;37.70;57.60;;;;;;5052120;28;20525;-76
2022/11/27 10:21:51;;;;;;;2.00;1.00;;;36.70;55.80;;;;;;5053089;28;20052;-76
2022/11/27 10:25:10;;;;;;;2.45;1.20;;;32.20;58.20;;;;;;5052788;28;20063;-78
2022/11/27 10:28:36;;;;;;;3.70;0.95;;;31.00;56.80;;;;;;5052726;28;20048;-80
2022/11/27 10:31:52;;;;;;;1.73;1.00;;;30.80;56.90;;;;;;5052821;28;20048;-75
2022/11/27 10:35:01;;;;;;;3.90;1.65;;;32.50;58.80;;;;;;5052549;28;20048;-78
2022/11/27 10:38:10;;;;;;;3.20;1.17;;;33.20;54.60;;;;;;5052656;28;20049;-77
2022/11/27 10:41:23;;;;;;;2.33;1.10;;;34.30;57.30;;;;;;5052280;28;20068;-78
2022/11/27 10:45:05;;;;;;;2.38;1.10;;;35.50;55.70;;;;;;5051899;28;20411;-76
2022/11/27 10:48:29;;;;;;;2.53;1.35;;;34.20;54.50;;;;;;5052104;28;20490;-75
2022/11/27 10:51:36;;;;;;;1.92;1.25;;;33.10;54.70;;;;;;5052347;28;20036;-79
2022/11/27 10:54:42;;;;;;;2.33;0.82;;;32.40;55.60;;;;;;5052003;28;20127;-77
2022/11/27 10:57:52;;;;;;;1.77;1.20;;;31.30;57.00;;;;;;5051396;28;20392;-77
2022/11/27 11:04:41;;;;;;;2.80;0.93;;;29.10;57.00;;;;;;5051285;28;20052;-77
2022/11/27 11:07:56;;;;;;;2.17;0.93;;;28.40;58.10;;;;;;5052103;28;20048;-76
2022/11/27 11:11:04;;;;;;;1.40;0.80;;;27.90;57.40;;;;;;5052140;28;20052;-80
2022/11/27 11:14:21;;;;;;;2.67;1.20;;;28.50;57.20;;;;;;5050328;28;20048;-78
2022/11/27 11:17:29;;;;;;;2.30;1.20;;;30.60;58.20;;;;;;5051796;28;20043;-76
2022/11/27 11:20:33;;;;;;;1.17;0.77;;;33.10;56.40;;;;;;5051777;28;20056;-79
2022/11/27 11:23:40;;;;;;;4.15;1.63;;;33.60;55.10;;;;;;5051371;28;20391;-77
2022/11/27 11:26:46;;;;;;;4.05;1.00;;;34.10;52.20;;;;;;5051873;28;20040;-77
2022/11/27 11:30:01;;;;;;;2.53;0.82;;;33.90;53.60;;;;;;5051448;28;20048;-75
2022/11/27 11:33:25;;;;;;;1.77;0.90;;;32.60;55.20;;;;;;5050386;28;20048;-75
2022/11/27 11:37:03;;;;;;;4.80;2.28;;;31.30;53.30;;;;;;5051460;28;20494;-82
2022/11/27 11:40:31;;;;;;;8.18;2.00;;;27.10;59.20;;;;;;5052499;28;20048;-83
2022/11/27 11:43:36;;;;;;;5.88;2.22;;;25.40;61.40;;;;;;5053362;28;20116;-80
2022/11/27 11:54:23;;;;;;;4.10;1.98;;;20.20;68.10;;;;;;5050552;28;20044;-76
2022/11/27 11:57:46;;;;;;;3.08;2.20;;;21.30;68.10;;;;;;5051349;28;20051;-77
2022/11/27 12:01:04;;;;;;;3.17;1.67;;;22.80;66.80;;;;;;5051870;28;20048;-83
2022/11/27 12:04:11;;;;;;;2.90;1.50;;;23.00;64.60;;;;;;5061819;28;20052;-76
2022/11/27 12:07:50;;;;;;;3.17;1.63;;;21.40;65.10;;;;;;5052014;28;20048;-81
2022/11/27 12:11:18;;;;;;;5.00;1.75;;;21.20;65.70;;;;;;5051337;28;20439;-80
2022/11/27 12:14:41;;;;;;;4.82;1.90;;;19.10;69.40;;;;;;5051425;28;20052;-80
2022/11/27 12:18:09;;;;;;;4.47;2.20;;;20.20;67.70;;;;;;5052404;28;20048;-80
2022/11/27 12:21:15;;;;;;;2.90;1.38;;;21.20;66.50;;;;;;5050623;28;20046;-79
2022/11/27 12:24:37;;;;;;;8.10;3.35;;;22.10;64.90;;;;;;5051843;28;20048;-82
2022/11/27 12:28:19;;;;;;;4.90;1.83;;;26.10;61.90;;;;;;5051810;28;20044;-83
2022/11/27 12:31:26;;;;;;;4.32;1.80;;;27.30;57.40;;;;;;5051176;28;20048;-82
2022/11/27 12:34:56;;;;;;;2.13;1.60;;;27.90;58.30;;;;;;5052259;28;20392;-81
2022/11/27 12:38:20;;;;;;;8.40;4.95;;;28.20;57.00;;;;;;5052955;28;20506;-83
2022/11/27 12:45:16;;;;;;;1.33;0.80;;;27.40;58.30;;;;;;5050066;28;20048;-77
2022/11/27 12:48:41;;;;;;;4.05;1.77;;;27.10;60.20;;;;;;5050616;28;20047;-82
2022/11/27 12:51:52;;;;;;;2.00;1.40;;;27.60;60.40;;;;;;5050674;28;20043;-79
2022/11/27 12:55:05;;;;;;;4.55;1.95;;;28.30;61.80;;;;;;5048819;28;20044;-78
2022/11/27 12:58:21;;;;;;;3.28;1.23;;;28.90;58.50;;;;;;5050248;28;20044;-79
2022/11/27 13:01:33;;;;;;;2.85;1.20;;;23.20;60.10;;;;;;5050386;28;20419;-79
2022/11/27 13:04:48;;;;;;;1.50;1.10;;;24.60;62.40;;;;;;5049663;28;20040;-80
2022/11/27 13:08:12;;;;;;;3.75;1.13;;;26.30;60.60;;;;;;5050676;28;20059;-81
2022/11/27 13:11:19;;;;;;;1.10;0.90;;;25.30;57.10;;;;;;5050497;28;20044;-78
2022/11/27 13:14:25;;;;;;;3.42;1.20;;;21.80;60.80;;;;;;5050254;28;20044;-81
2022/11/27 13:21:06;;;;;;;2.45;1.23;;;22.40;62.70;;;;;;5048796;28;20040;-80
2022/11/27 13:24:12;;;;;;;3.92;1.45;;;23.40;61.30;;;;;;5049606;28;20388;-79
2022/11/27 13:27:22;;;;;;;2.75;1.10;;;24.20;61.90;;;;;;5049745;28;20052;-79
2022/11/27 13:30:31;;;;;;;2.35;1.60;;;26.00;59.90;;;;;;5049749;28;20044;-79
2022/11/27 13:33:37;;;;;;;2.30;1.13;;;27.60;61.40;;;;;;5052852;28;20044;-80
2022/11/27 13:36:45;;;;;;;4.95;1.30;;;27.60;57.80;;;;;;5064642;28;20044;-81
2022/11/27 13:39:49;;;;;;;5.13;1.95;;;27.50;58.40;;;;;;5054066;28;20048;-80
2022/11/27 13:43:27;;;;;;;2.53;0.90;;;27.40;59.30;;;;;;5053311;28;20052;-80
2022/11/27 13:46:47;;;;;;;1.50;1.00;;;28.20;59.70;;;;;;5052774;28;20044;-81
2022/11/27 13:50:10;;;;;;;1.40;0.90;;;28.50;59.30;;;;;;5053440;28;20502;-81
2022/11/27 13:53:16;;;;;;;2.08;0.88;;;28.50;58.40;;;;;;5053222;28;20047;-80
2022/11/27 13:56:30;;;;;;;1.58;1.00;;;28.50;59.10;;;;;;5053583;28;20443;-81
2022/11/27 13:59:34;;;;;;;2.88;1.20;;;27.10;58.40;;;;;;5052629;28;20044;-77
2022/11/27 14:02:47;;;;;;;1.42;1.05;;;27.30;60.10;;;;;;5053378;28;20069;-77
2022/11/27 14:09:33;;;;;;;1.25;0.90;;;27.30;59.30;;;;;;5052356;28;20059;-78
2022/11/27 14:12:56;;;;;;;2.05;0.90;;;27.20;59.90;;;;;;5053174;28;20036;-80
2022/11/27 14:16:02;;;;;;;1.77;1.10;;;27.50;61.30;;;;;;5053117;28;20047;-78
2022/11/27 14:19:25;;;;;;;1.58;0.90;;;27.90;60.00;;;;;;5040740;28;20734;-78
2022/11/27 14:22:50;;;;;;;2.60;1.30;;;27.90;60.30;;;;;;5052761;28;20511;-80
2022/11/27 14:26:11;;;;;;;2.08;1.15;;;26.90;59.60;;;;;;5052782;28;20044;-80
2022/11/27 14:32:38;;;;;;;3.35;2.10;;;25.00;59.00;;;;;;5063201;28;20040;-78
2022/11/27 14:35:48;;;;;;;3.17;1.80;;;24.00;60.30;;;;;;5052684;28;20044;-78
2022/11/27 14:38:53;;;;;;;2.47;1.80;;;23.70;59.80;;;;;;5051447;28;20096;-77
2022/11/27 14:42:06;;;;;;;5.05;3.08;;;22.70;60.80;;;;;;5052478;28;20056;-79
2022/11/27 14:45:16;;;;;;;3.03;2.00;;;21.90;62.50;;;;;;5051206;28;20044;-79
2022/11/27 14:48:55;;;;;;;6.50;2.20;;;21.60;63.30;;;;;;5052613;28;20056;-82
2022/11/27 14:52:04;;;;;;;6.13;2.47;;;20.90;63.80;;;;;;5050858;28;20055;-81
2022/11/27 14:55:18;;;;;;;5.10;2.63;;;20.40;65.60;;;;;;5051806;28;20391;-80
2022/11/27 14:58:52;;;;;;;5.00;2.80;;;20.30;65.00;;;;;;5051997;28;20490;-78
2022/11/27 15:02:14;;;;;;;5.00;2.83;;;20.40;66.70;;;;;;5062953;28;20384;-81
2022/11/27 15:05:27;;;;;;;4.90;1.77;;;20.50;67.70;;;;;;5051764;28;20566;-81
2022/11/27 15:08:51;;;;;;;3.95;1.98;;;20.10;68.40;;;;;;5050962;28;20044;-79
2022/11/27 15:12:12;;;;;;;1.83;1.25;;;19.80;69.50;;;;;;5051990;28;20040;-80
2022/11/27 15:15:26;;;;;;;2.67;1.52;;;19.40;70.00;;;;;;5051589;28;20056;-80
2022/11/27 15:18:34;;;;;;;5.45;1.52;;;18.90;71.00;;;;;;5051961;28;20044;-80
2022/11/27 15:21:39;;;;;;;4.35;1.70;;;18.60;72.40;;;;;;5051723;28;20048;-80
2022/11/27 15:24:43;;;;;;;2.85;1.35;;;18.20;74.10;;;;;;5051306;28;20060;-80
2022/11/27 15:27:49;;;;;;;5.28;2.08;;;17.40;74.70;;;;;;5051773;28;20346;-80
2022/11/27 15:30:53;;;;;;;6.03;2.08;;;16.40;77.10;;;;;;5051845;28;20506;-77
2022/11/27 15:34:14;;;;;;;3.95;2.67;;;15.40;78.50;;;;;;5051357;28;20068;-77
2022/11/27 15:37:50;;;;;;;7.72;4.30;;;14.60;82.60;;;;;;5051585;28;20052;-79
2022/11/27 15:41:16;;;;;;;6.95;3.20;;;13.90;85.90;;;;;;5051235;28;20048;-79
2022/11/27 15:44:21;;;;;;;6.05;4.05;;;13.30;89.10;;;;;;5049217;28;20443;-76
2022/11/27 15:47:34;;;;;;;50.78;23.52;;;12.90;90.80;;;;;;5050749;28;20047;-76
2022/11/27 15:50:56;;;;;;;22.00;12.95;;;12.40;91.60;;;;;;5051228;28;20044;-76
2022/11/27 15:54:00;;;;;;;11.95;6.38;;;12.20;92.10;;;;;;5050276;28;20047;-77
2022/11/27 15:57:04;;;;;;;10.57;5.03;;;11.90;92.70;;;;;;5051298;28;20048;-80
2022/11/27 16:00:09;;;;;;;9.10;5.72;;;11.80;92.90;;;;;;5051460;28;20371;-79
2022/11/27 16:03:21;;;;;;;9.65;5.20;;;11.50;92.70;;;;;;5050249;28;20491;-80
2022/11/27 16:06:25;;;;;;;5.90;2.72;;;11.30;91.90;;;;;;5051059;28;20383;-79
2022/11/27 16:09:29;;;;;;;4.85;3.15;;;11.10;90.70;;;;;;5050907;28;20048;-77
2022/11/27 16:16:03;;;;;;;12.65;7.05;;;10.90;92.60;;;;;;5050872;28;20044;-76
2022/11/27 16:19:10;;;;;;;15.93;10.05;;;10.80;92.40;;;;;;5050902;28;20388;-78
2022/11/27 16:22:15;;;;;;;7.28;4.53;;;10.70;92.80;;;;;;5050917;28;20044;-76
2022/11/27 16:25:41;;;;;;;10.27;4.38;;;10.40;92.70;;;;;;5049994;28;20044;-78
2022/11/27 16:28:45;;;;;;;4.68;3.00;;;10.10;93.30;;;;;;5050442;28;20384;-79
2022/11/27 16:31:49;;;;;;;10.20;4.55;;;9.70;94.20;;;;;;5049570;28;20395;-79
2022/11/27 16:35:13;;;;;;;6.72;4.03;;;9.50;95.20;;;;;;5049235;28;20044;-76
2022/11/27 16:38:19;;;;;;;8.07;4.78;;;9.40;95.40;;;;;;5050168;28;20045;-76
2022/11/27 16:41:25;;;;;;;5.25;3.00;;;9.40;96.30;;;;;;5049627;28;20037;-79
2022/11/27 16:44:31;;;;;;;7.57;2.42;;;9.40;94.60;;;;;;5048471;28;20045;-79
2022/11/27 16:47:35;;;;;;;4.70;3.05;;;9.40;95.40;;;;;;5050679;28;20372;-79
2022/11/27 16:50:39;;;;;;;4.78;2.45;;;9.50;98.00;;;;;;5061032;28;20033;-79
2022/11/27 16:53:48;;;;;;;6.45;3.03;;;9.60;99.10;;;;;;5060596;28;20045;-77
2022/11/27 16:56:52;;;;;;;5.03;3.15;;;9.60;98.50;;;;;;5061125;28;20467;-78
2022/11/27 16:59:56;;;;;;;4.32;2.88;;;9.60;99.00;;;;;;5050303;28;20029;-78
2022/11/27 17:03:00;;;;;;;4.80;3.28;;;9.60;99.40;;;;;;5050116;28;20376;-78
2022/11/27 17:06:13;;;;;;;4.30;3.15;;;9.50;99.90;;;;;;5050560;28;20048;-78
2022/11/27 17:09:37;;;;;;;5.22;2.92;;;9.30;99.90;;;;;;5054196;28;20041;-78
2022/11/27 17:12:42;;;;;;;5.70;3.38;;;9.10;99.90;;;;;;5053525;28;20041;-78
2022/11/27 17:15:46;;;;;;;7.50;5.10;;;9.00;99.90;;;;;;5064393;28;20491;-78
2022/11/27 17:18:50;;;;;;;9.05;5.20;;;9.00;99.90;;;;;;5054050;28;20041;-78
2022/11/27 17:21:54;;;;;;;9.13;4.90;;;8.90;99.90;;;;;;5053377;28;20242;-78
2022/11/27 17:25:17;;;;;;;14.07;6.90;;;8.80;99.90;;;;;;5061313;28;20045;-78
2022/11/27 17:28:39;;;;;;;9.73;4.43;;;8.80;99.90;;;;;;5053875;28;20380;-78
2022/11/27 17:35:07;;;;;;;15.02;8.95;;;8.80;99.90;;;;;;5063762;28;20060;-79
2022/11/27 17:38:12;;;;;;;20.23;12.70;;;8.80;99.90;;;;;;5052628;28;20048;-78
2022/11/27 17:41:16;;;;;;;10.18;6.35;;;8.60;99.90;;;;;;5053762;28;20067;-78
2022/11/27 17:44:39;;;;;;;9.35;5.68;;;8.50;99.90;;;;;;5052544;28;20040;-79
2022/11/27 17:47:45;;;;;;;7.95;4.47;;;8.40;99.90;;;;;;5053909;28;20040;-78
2022/11/27 17:50:50;;;;;;;12.73;6.57;;;8.30;99.90;;;;;;5053743;28;20041;-78
2022/11/27 17:53:59;;;;;;;26.45;12.82;;;8.20;99.90;;;;;;5063664;28;20407;-78
2022/11/27 17:57:03;;;;;;;15.60;8.02;;;8.10;99.90;;;;;;5053497;28;20040;-78